createdAt,value
2022-11-05T00:09:37.923Z,99.90
2022-11-05T00:19:39.546Z,99.90
2022-11-05T00:29:41.208Z,99.90
2022-11-05T00:39:42.832Z,99.90
2022-11-05T00:49:44.455Z,99.90
2022-11-05T00:59:46.069Z,99.90
2022-11-05T01:09:47.678Z,99.90
2022-11-05T01:19:49.320Z,99.90
2022-11-05T01:29:51.016Z,99.90
2022-11-05T01:39:52.662Z,99.90
2022-11-05T01:49:55.934Z,99.90
2022-11-05T01:59:59.849Z,99.90
2022-11-05T02:10:08.043Z,99.90
2022-11-05T02:20:33.517Z,99.90
2022-11-05T02:30:40.947Z,99.90
2022-11-05T02:40:54.570Z,99.90
2022-11-05T02:51:05.060Z,99.90
2022-11-05T03:01:07.008Z,99.90
2022-11-05T03:11:15.963Z,99.90
2022-11-05T03:21:21.906Z,99.90
2022-11-05T03:31:25.272Z,99.90
2022-11-05T03:41:29.011Z,99.90
2022-11-05T03:51:36.297Z,99.90
2022-11-05T04:01:39.479Z,99.90
2022-11-05T04:11:59.998Z,99.90
2022-11-05T04:22:20.472Z,99.90
2022-11-05T04:32:22.131Z,99.90
2022-11-05T04:42:23.756Z,99.90
2022-11-05T04:52:25.418Z,99.90
2022-11-05T05:02:27.241Z,99.90
2022-11-05T05:12:29.592Z,99.90
2022-11-05T05:22:31.288Z,99.90
2022-11-05T05:32:33.295Z,99.90
2022-11-05T05:42:40.239Z,99.90
2022-11-05T05:52:44.435Z,99.90
2022-11-05T06:02:46.225Z,99.90
2022-11-05T06:12:47.945Z,99.90
2022-11-05T06:22:57.346Z,99.90
2022-11-05T06:33:05.523Z,99.90
2022-11-05T06:43:07.514Z,99.90
2022-11-05T06:53:09.490Z,99.90
2022-11-05T07:03:12.920Z,99.90
2022-11-05T07:13:15.835Z,99.90
2022-11-05T07:23:18.027Z,99.90
2022-11-05T07:33:19.640Z,99.90
2022-11-05T07:43:21.278Z,99.90
2022-11-05T07:53:22.900Z,99.90
2022-11-05T08:03:24.646Z,99.90
2022-11-05T08:13:26.373Z,99.90
2022-11-05T08:23:29.190Z,99.90
2022-11-05T08:33:31.489Z,99.90
2022-11-05T08:43:33.273Z,99.90
2022-11-05T08:53:34.905Z,99.90
2022-11-05T09:03:36.598Z,99.90
2022-11-05T09:13:38.473Z,99.90
2022-11-05T09:23:40.274Z,99.90
2022-11-05T09:33:42.088Z,99.90
2022-11-05T09:44:02.179Z,99.90
2022-11-05T09:54:05.505Z,99.90
2022-11-05T10:04:13.408Z,99.90
2022-11-05T10:14:28.696Z,99.90
2022-11-05T10:24:30.499Z,99.90
2022-11-05T10:34:35.639Z,99.90
2022-11-05T10:44:43.113Z,99.90
2022-11-05T10:54:45.920Z,99.90
2022-11-05T11:04:55.037Z,99.90
2022-11-05T11:15:35.134Z,99.90
2022-11-05T11:26:02.803Z,99.90
2022-11-05T11:36:05.609Z,99.60
2022-11-05T11:46:20.044Z,99.00
2022-11-05T11:56:21.867Z,98.50
2022-11-05T12:06:34.061Z,98.20
2022-11-05T12:16:46.659Z,97.40
2022-11-05T12:27:00.070Z,96.50
2022-11-05T12:37:46.638Z,97.30
2022-11-05T12:48:03.438Z,97.90
2022-11-05T12:58:36.916Z,98.00
2022-11-05T13:09:06.345Z,97.20
2022-11-05T13:19:37.373Z,97.40
2022-11-05T13:29:55.949Z,96.50
2022-11-05T13:40:01.438Z,96.80
2022-11-05T13:50:12.529Z,96.90
2022-11-05T14:00:25.398Z,96.80
2022-11-05T14:10:40.626Z,96.40
2022-11-05T14:21:00.968Z,96.30
2022-11-05T14:31:18.663Z,96.30
2022-11-05T14:41:21.004Z,96.50
2022-11-05T14:51:44.217Z,96.50
2022-11-05T15:01:46.008Z,96.70
2022-11-05T15:11:56.704Z,97.10
2022-11-05T15:22:01.423Z,97.10
2022-11-05T15:32:03.075Z,97.20
2022-11-05T15:42:17.235Z,97.30
2022-11-05T15:52:21.162Z,97.20
2022-11-05T16:02:30.811Z,97.20
2022-11-05T16:12:35.142Z,97.60
2022-11-05T16:23:00.278Z,97.50
2022-11-05T16:33:07.482Z,97.80
2022-11-05T16:43:20.397Z,98.20
2022-11-05T16:53:22.050Z,98.50
2022-11-05T17:03:23.685Z,98.60
2022-11-05T17:13:25.330Z,98.70
2022-11-05T17:23:27.000Z,99.00
2022-11-05T17:33:29.268Z,98.80
2022-11-05T17:43:30.895Z,98.80
2022-11-05T17:53:32.578Z,99.10
2022-11-05T18:03:35.758Z,99.10
2022-11-05T18:13:37.645Z,99.20
2022-11-05T18:23:39.293Z,99.60
2022-11-05T18:33:42.479Z,99.40
2022-11-05T18:43:44.135Z,99.90
2022-11-05T19:03:49.423Z,99.60
2022-11-05T19:13:51.250Z,99.90
2022-11-05T19:23:53.381Z,99.90
2022-11-05T19:33:55.423Z,99.80
2022-11-05T19:44:01.818Z,99.90
2022-11-05T19:54:04.572Z,99.90
2022-11-05T20:04:06.348Z,99.90
2022-11-05T20:14:09.782Z,99.90
2022-11-05T20:24:13.310Z,99.80
2022-11-05T20:34:16.136Z,99.80
2022-11-05T20:44:17.763Z,99.90
2022-11-05T20:54:19.495Z,99.90
2022-11-05T21:04:21.176Z,99.80
2022-11-05T21:14:22.830Z,99.90
2022-11-05T21:24:24.560Z,99.80
2022-11-05T21:34:26.525Z,99.80
2022-11-05T21:44:28.312Z,99.90
2022-11-05T21:54:48.745Z,99.90
2022-11-05T22:04:52.804Z,99.90
2022-11-05T22:14:54.928Z,99.90
2022-11-05T22:24:56.781Z,99.90
2022-11-05T22:34:58.432Z,99.90
2022-11-05T22:45:00.094Z,99.90
2022-11-05T22:55:03.767Z,99.90
2022-11-05T23:05:05.568Z,99.90
2022-11-05T23:15:08.246Z,99.90
2022-11-05T23:25:12.457Z,99.90
2022-11-05T23:35:14.715Z,99.90
2022-11-05T23:45:35.007Z,99.90
2022-11-05T23:55:36.780Z,99.90
